sensor_id;sensor_type;location;lat;lon;timestamp;temperature;humidity
5723;DHT22;2886;49.722;8.612;2023-02-28T00:01:12;-0.20;84.70
5723;DHT22;2886;49.722;8.612;2023-02-28T00:03:40;-0.20;85.00
5723;DHT22;2886;49.722;8.612;2023-02-28T00:06:07;-0.20;84.80
5723;DHT22;2886;49.722;8.612;2023-02-28T00:08:33;-0.30;85.30
5723;DHT22;2886;49.722;8.612;2023-02-28T00:11:07;-0.30;86.00
5723;DHT22;2886;49.722;8.612;2023-02-28T00:13:35;-0.20;85.70
5723;DHT22;2886;49.722;8.612;2023-02-28T00:16:03;-0.20;86.00
5723;DHT22;2886;49.722;8.612;2023-02-28T00:18:30;-0.30;86.20
5723;DHT22;2886;49.722;8.612;2023-02-28T00:20:56;-0.30;86.60
5723;DHT22;2886;49.722;8.612;2023-02-28T00:23:22;-0.20;86.70
5723;DHT22;2886;49.722;8.612;2023-02-28T00:25:48;-0.30;86.60
5723;DHT22;2886;49.722;8.612;2023-02-28T00:28:14;-0.40;87.00
5723;DHT22;2886;49.722;8.612;2023-02-28T00:30:39;-0.30;87.40
5723;DHT22;2886;49.722;8.612;2023-02-28T00:33:05;-0.30;87.90
5723;DHT22;2886;49.722;8.612;2023-02-28T00:35:31;-0.30;87.80
5723;DHT22;2886;49.722;8.612;2023-02-28T00:37:56;-0.30;87.80
5723;DHT22;2886;49.722;8.612;2023-02-28T00:40:22;-0.30;88.20
5723;DHT22;2886;49.722;8.612;2023-02-28T00:42:48;-0.30;88.00
5723;DHT22;2886;49.722;8.612;2023-02-28T00:45:13;-0.40;88.50
5723;DHT22;2886;49.722;8.612;2023-02-28T00:47:39;-0.40;89.00
5723;DHT22;2886;49.722;8.612;2023-02-28T00:50:05;-0.40;89.30
5723;DHT22;2886;49.722;8.612;2023-02-28T00:52:31;-0.40;89.40
5723;DHT22;2886;49.722;8.612;2023-02-28T00:54:57;-0.40;89.60
5723;DHT22;2886;49.722;8.612;2023-02-28T00:57:22;-0.40;89.80
5723;DHT22;2886;49.722;8.612;2023-02-28T00:59:48;-0.50;90.00
5723;DHT22;2886;49.722;8.612;2023-02-28T01:02:14;-0.50;90.40
5723;DHT22;2886;49.722;8.612;2023-02-28T01:04:39;-0.50;90.20
5723;DHT22;2886;49.722;8.612;2023-02-28T01:07:05;-0.50;90.40
5723;DHT22;2886;49.722;8.612;2023-02-28T01:09:31;-0.40;90.50
5723;DHT22;2886;49.722;8.612;2023-02-28T01:11:56;-0.50;90.40
5723;DHT22;2886;49.722;8.612;2023-02-28T01:14:22;-0.50;90.60
5723;DHT22;2886;49.722;8.612;2023-02-28T01:16:48;-0.50;90.70
5723;DHT22;2886;49.722;8.612;2023-02-28T01:19:13;-0.50;90.80
5723;DHT22;2886;49.722;8.612;2023-02-28T01:21:39;-0.50;90.80
5723;DHT22;2886;49.722;8.612;2023-02-28T01:24:05;-0.50;90.90
5723;DHT22;2886;49.722;8.612;2023-02-28T01:26:31;-0.50;91.00
5723;DHT22;2886;49.722;8.612;2023-02-28T01:28:57;-0.50;91.50
5723;DHT22;2886;49.722;8.612;2023-02-28T01:31:23;-0.50;91.20
5723;DHT22;2886;49.722;8.612;2023-02-28T01:33:49;-0.60;91.30
5723;DHT22;2886;49.722;8.612;2023-02-28T01:36:18;-0.60;91.30
5723;DHT22;2886;49.722;8.612;2023-02-28T01:38:44;-0.50;91.30
5723;DHT22;2886;49.722;8.612;2023-02-28T01:46:13;-0.50;91.50
5723;DHT22;2886;49.722;8.612;2023-02-28T01:48:43;-0.60;91.50
5723;DHT22;2886;49.722;8.612;2023-02-28T01:51:17;-0.60;91.50
5723;DHT22;2886;49.722;8.612;2023-02-28T01:53:47;-0.60;91.60
5723;DHT22;2886;49.722;8.612;2023-02-28T01:56:17;-0.60;91.70
5723;DHT22;2886;49.722;8.612;2023-02-28T01:58:52;-0.50;91.80
5723;DHT22;2886;49.722;8.612;2023-02-28T02:01:19;-0.60;91.50
5723;DHT22;2886;49.722;8.612;2023-02-28T02:03:50;-0.60;91.60
5723;DHT22;2886;49.722;8.612;2023-02-28T02:06:26;-0.60;91.70
5723;DHT22;2886;49.722;8.612;2023-02-28T02:08:53;-0.60;91.80
5723;DHT22;2886;49.722;8.612;2023-02-28T02:11:20;-0.60;91.80
5723;DHT22;2886;49.722;8.612;2023-02-28T02:16:45;-0.70;92.10
5723;DHT22;2886;49.722;8.612;2023-02-28T02:19:34;-0.70;92.20
5723;DHT22;2886;49.722;8.612;2023-02-28T02:30:27;-0.70;92.60
5723;DHT22;2886;49.722;8.612;2023-02-28T02:35:50;-0.70;92.70
5723;DHT22;2886;49.722;8.612;2023-02-28T02:41:15;-0.70;92.70
5723;DHT22;2886;49.722;8.612;2023-02-28T02:46:35;-0.70;92.70
5723;DHT22;2886;49.722;8.612;2023-02-28T02:49:05;-0.70;92.80
5723;DHT22;2886;49.722;8.612;2023-02-28T02:51:33;-0.70;92.80
5723;DHT22;2886;49.722;8.612;2023-02-28T02:54:23;-0.70;92.80
5723;DHT22;2886;49.722;8.612;2023-02-28T02:56:57;-0.70;93.00
5723;DHT22;2886;49.722;8.612;2023-02-28T02:59:24;-0.70;93.00
5723;DHT22;2886;49.722;8.612;2023-02-28T03:01:57;-0.70;92.80
5723;DHT22;2886;49.722;8.612;2023-02-28T03:04:30;-0.70;92.60
5723;DHT22;2886;49.722;8.612;2023-02-28T03:06:57;-0.70;93.00
5723;DHT22;2886;49.722;8.612;2023-02-28T03:09:23;-0.80;93.00
5723;DHT22;2886;49.722;8.612;2023-02-28T03:11:52;-0.70;93.00
5723;DHT22;2886;49.722;8.612;2023-02-28T03:14:28;-0.80;93.10
5723;DHT22;2886;49.722;8.612;2023-02-28T03:25:17;-0.80;93.50
5723;DHT22;2886;49.722;8.612;2023-02-28T03:28:00;-0.80;93.60
5723;DHT22;2886;49.722;8.612;2023-02-28T03:30:49;-0.90;93.70
5723;DHT22;2886;49.722;8.612;2023-02-28T03:33:26;-0.90;94.00
5723;DHT22;2886;49.722;8.612;2023-02-28T03:36:01;-0.90;94.10
5723;DHT22;2886;49.722;8.612;2023-02-28T03:41:21;-0.90;94.20
5723;DHT22;2886;49.722;8.612;2023-02-28T03:43:58;-1.00;94.50
5723;DHT22;2886;49.722;8.612;2023-02-28T03:46:28;-1.00;94.70
5723;DHT22;2886;49.722;8.612;2023-02-28T03:49:17;-1.00;94.80
5723;DHT22;2886;49.722;8.612;2023-02-28T03:51:45;-1.10;94.80
5723;DHT22;2886;49.722;8.612;2023-02-28T03:54:29;-1.10;94.90
5723;DHT22;2886;49.722;8.612;2023-02-28T03:59:41;-1.10;95.30
5723;DHT22;2886;49.722;8.612;2023-02-28T04:02:09;-1.10;95.40
5723;DHT22;2886;49.722;8.612;2023-02-28T04:04:35;-1.10;95.50
5723;DHT22;2886;49.722;8.612;2023-02-28T04:07:06;-1.10;95.60
5723;DHT22;2886;49.722;8.612;2023-02-28T04:09:33;-1.20;95.70
5723;DHT22;2886;49.722;8.612;2023-02-28T04:11:58;-1.20;95.90
5723;DHT22;2886;49.722;8.612;2023-02-28T04:14:24;-1.20;96.00
5723;DHT22;2886;49.722;8.612;2023-02-28T04:16:50;-1.30;96.30
5723;DHT22;2886;49.722;8.612;2023-02-28T04:19:19;-1.20;96.20
5723;DHT22;2886;49.722;8.612;2023-02-28T04:21:49;-1.30;96.20
5723;DHT22;2886;49.722;8.612;2023-02-28T04:24:19;-1.30;96.20
5723;DHT22;2886;49.722;8.612;2023-02-28T04:26:53;-1.30;96.40
5723;DHT22;2886;49.722;8.612;2023-02-28T04:29:28;-1.30;96.40
5723;DHT22;2886;49.722;8.612;2023-02-28T04:31:54;-1.30;96.30
5723;DHT22;2886;49.722;8.612;2023-02-28T04:34:21;-1.30;96.40
5723;DHT22;2886;49.722;8.612;2023-02-28T04:36:47;-1.30;96.50
5723;DHT22;2886;49.722;8.612;2023-02-28T04:39:19;-1.30;96.40
5723;DHT22;2886;49.722;8.612;2023-02-28T04:41:46;-1.30;96.20
5723;DHT22;2886;49.722;8.612;2023-02-28T04:44:12;-1.30;96.20
5723;DHT22;2886;49.722;8.612;2023-02-28T04:46:37;-1.20;96.10
5723;DHT22;2886;49.722;8.612;2023-02-28T04:49:03;-1.20;95.80
5723;DHT22;2886;49.722;8.612;2023-02-28T04:51:29;-1.10;95.50
5723;DHT22;2886;49.722;8.612;2023-02-28T04:53:54;-1.10;95.40
5723;DHT22;2886;49.722;8.612;2023-02-28T04:56:21;-1.10;95.30
5723;DHT22;2886;49.722;8.612;2023-02-28T04:58:46;-1.10;95.30
5723;DHT22;2886;49.722;8.612;2023-02-28T05:01:16;-1.10;95.30
5723;DHT22;2886;49.722;8.612;2023-02-28T05:03:44;-1.10;95.30
5723;DHT22;2886;49.722;8.612;2023-02-28T05:06:11;-1.10;95.30
5723;DHT22;2886;49.722;8.612;2023-02-28T05:08:43;-1.10;95.30
5723;DHT22;2886;49.722;8.612;2023-02-28T05:11:16;-1.10;95.30
5723;DHT22;2886;49.722;8.612;2023-02-28T05:13:42;-1.10;95.10
5723;DHT22;2886;49.722;8.612;2023-02-28T05:16:08;-1.10;95.20
5723;DHT22;2886;49.722;8.612;2023-02-28T05:18:35;-1.10;95.10
5723;DHT22;2886;49.722;8.612;2023-02-28T05:21:00;-1.10;95.20
5723;DHT22;2886;49.722;8.612;2023-02-28T05:23:29;-1.10;95.30
5723;DHT22;2886;49.722;8.612;2023-02-28T05:25:55;-1.20;95.30
5723;DHT22;2886;49.722;8.612;2023-02-28T05:28:21;-1.20;95.40
5723;DHT22;2886;49.722;8.612;2023-02-28T05:30:46;-1.20;95.40
5723;DHT22;2886;49.722;8.612;2023-02-28T05:33:12;-1.20;95.50
5723;DHT22;2886;49.722;8.612;2023-02-28T05:35:39;-1.20;95.60
5723;DHT22;2886;49.722;8.612;2023-02-28T05:38:05;-1.20;95.70
5723;DHT22;2886;49.722;8.612;2023-02-28T05:40:30;-1.30;95.70
5723;DHT22;2886;49.722;8.612;2023-02-28T05:42:56;-1.30;95.70
5723;DHT22;2886;49.722;8.612;2023-02-28T05:45:21;-1.20;95.70
5723;DHT22;2886;49.722;8.612;2023-02-28T05:47:47;-1.30;95.80
5723;DHT22;2886;49.722;8.612;2023-02-28T05:50:13;-1.20;95.60
5723;DHT22;2886;49.722;8.612;2023-02-28T05:52:38;-1.20;95.70
5723;DHT22;2886;49.722;8.612;2023-02-28T05:55:04;-1.30;95.70
5723;DHT22;2886;49.722;8.612;2023-02-28T05:57:30;-1.30;95.90
5723;DHT22;2886;49.722;8.612;2023-02-28T05:59:55;-1.30;95.80
5723;DHT22;2886;49.722;8.612;2023-02-28T06:02:21;-1.30;95.80
5723;DHT22;2886;49.722;8.612;2023-02-28T06:04:47;-1.30;95.70
5723;DHT22;2886;49.722;8.612;2023-02-28T06:07:12;-1.30;95.70
5723;DHT22;2886;49.722;8.612;2023-02-28T06:09:38;-1.30;95.70
5723;DHT22;2886;49.722;8.612;2023-02-28T06:12:05;-1.20;95.70
5723;DHT22;2886;49.722;8.612;2023-02-28T06:14:32;-1.30;95.70
5723;DHT22;2886;49.722;8.612;2023-02-28T06:16:58;-1.20;95.90
5723;DHT22;2886;49.722;8.612;2023-02-28T06:19:24;-1.20;95.80
5723;DHT22;2886;49.722;8.612;2023-02-28T06:21:54;-1.20;95.70
5723;DHT22;2886;49.722;8.612;2023-02-28T06:24:21;-1.20;95.60
5723;DHT22;2886;49.722;8.612;2023-02-28T06:26:48;-1.20;95.60
5723;DHT22;2886;49.722;8.612;2023-02-28T06:29:14;-1.20;95.80
5723;DHT22;2886;49.722;8.612;2023-02-28T06:31:44;-1.10;95.60
5723;DHT22;2886;49.722;8.612;2023-02-28T06:34:10;-1.20;95.50
5723;DHT22;2886;49.722;8.612;2023-02-28T06:36:38;-1.20;95.60
5723;DHT22;2886;49.722;8.612;2023-02-28T06:39:04;-1.20;95.70
5723;DHT22;2886;49.722;8.612;2023-02-28T06:41:30;-1.20;95.70
5723;DHT22;2886;49.722;8.612;2023-02-28T06:43:56;-1.20;95.70
5723;DHT22;2886;49.722;8.612;2023-02-28T06:46:22;-1.20;95.70
5723;DHT22;2886;49.722;8.612;2023-02-28T06:48:48;-1.10;95.60
5723;DHT22;2886;49.722;8.612;2023-02-28T06:51:17;-1.20;95.70
5723;DHT22;2886;49.722;8.612;2023-02-28T06:53:45;-1.10;95.70
5723;DHT22;2886;49.722;8.612;2023-02-28T06:56:12;-1.10;95.60
5723;DHT22;2886;49.722;8.612;2023-02-28T06:58:39;-1.10;95.50
5723;DHT22;2886;49.722;8.612;2023-02-28T07:01:06;-1.10;95.30
5723;DHT22;2886;49.722;8.612;2023-02-28T07:03:32;-1.00;95.10
5723;DHT22;2886;49.722;8.612;2023-02-28T07:05:58;-1.00;95.20
5723;DHT22;2886;49.722;8.612;2023-02-28T07:08:24;-1.00;94.90
5723;DHT22;2886;49.722;8.612;2023-02-28T07:10:54;-1.00;94.90
5723;DHT22;2886;49.722;8.612;2023-02-28T07:13:20;-1.00;94.70
5723;DHT22;2886;49.722;8.612;2023-02-28T07:16:02;-0.90;94.50
5723;DHT22;2886;49.722;8.612;2023-02-28T07:18:28;-0.90;94.40
5723;DHT22;2886;49.722;8.612;2023-02-28T07:20:54;-0.80;94.30
5723;DHT22;2886;49.722;8.612;2023-02-28T07:23:21;-0.70;93.80
5723;DHT22;2886;49.722;8.612;2023-02-28T07:25:46;-0.50;93.10
5723;DHT22;2886;49.722;8.612;2023-02-28T07:28:13;-0.20;92.40
5723;DHT22;2886;49.722;8.612;2023-02-28T07:30:39;0.10;91.90
5723;DHT22;2886;49.722;8.612;2023-02-28T07:33:05;0.40;91.10
5723;DHT22;2886;49.722;8.612;2023-02-28T07:35:31;0.60;89.30
5723;DHT22;2886;49.722;8.612;2023-02-28T07:37:58;0.60;88.20
5723;DHT22;2886;49.722;8.612;2023-02-28T07:40:24;0.80;87.30
5723;DHT22;2886;49.722;8.612;2023-02-28T07:42:50;1.00;86.70
5723;DHT22;2886;49.722;8.612;2023-02-28T07:45:15;1.00;83.80
5723;DHT22;2886;49.722;8.612;2023-02-28T07:47:42;1.00;84.60
5723;DHT22;2886;49.722;8.612;2023-02-28T07:50:11;1.10;83.70
5723;DHT22;2886;49.722;8.612;2023-02-28T07:52:37;1.10;84.10
5723;DHT22;2886;49.722;8.612;2023-02-28T07:55:04;1.20;82.30
5723;DHT22;2886;49.722;8.612;2023-02-28T07:57:31;1.30;81.60
5723;DHT22;2886;49.722;8.612;2023-02-28T07:59:57;1.70;80.40
5723;DHT22;2886;49.722;8.612;2023-02-28T08:02:22;2.00;78.60
5723;DHT22;2886;49.722;8.612;2023-02-28T08:04:48;2.40;75.90
5723;DHT22;2886;49.722;8.612;2023-02-28T08:07:15;2.50;74.20
5723;DHT22;2886;49.722;8.612;2023-02-28T08:09:41;2.70;72.70
5723;DHT22;2886;49.722;8.612;2023-02-28T08:12:08;2.90;71.20
5723;DHT22;2886;49.722;8.612;2023-02-28T08:14:34;2.60;70.60
5723;DHT22;2886;49.722;8.612;2023-02-28T08:17:00;2.60;70.80
5723;DHT22;2886;49.722;8.612;2023-02-28T08:19:25;2.80;70.90
5723;DHT22;2886;49.722;8.612;2023-02-28T08:21:51;2.80;69.30
5723;DHT22;2886;49.722;8.612;2023-02-28T08:24:17;2.90;69.80
5723;DHT22;2886;49.722;8.612;2023-02-28T08:26:42;3.10;68.60
5723;DHT22;2886;49.722;8.612;2023-02-28T08:29:08;3.40;67.20
5723;DHT22;2886;49.722;8.612;2023-02-28T08:31:33;3.20;66.40
5723;DHT22;2886;49.722;8.612;2023-02-28T08:34:07;2.90;67.10
5723;DHT22;2886;49.722;8.612;2023-02-28T08:36:33;2.90;67.50
5723;DHT22;2886;49.722;8.612;2023-02-28T08:38:58;3.20;66.10
5723;DHT22;2886;49.722;8.612;2023-02-28T08:41:25;3.00;67.10
5723;DHT22;2886;49.722;8.612;2023-02-28T08:43:51;3.10;67.10
5723;DHT22;2886;49.722;8.612;2023-02-28T08:46:17;3.00;66.20
5723;DHT22;2886;49.722;8.612;2023-02-28T08:48:43;3.10;66.40
5723;DHT22;2886;49.722;8.612;2023-02-28T08:51:11;3.20;65.50
5723;DHT22;2886;49.722;8.612;2023-02-28T08:53:39;3.20;65.80
5723;DHT22;2886;49.722;8.612;2023-02-28T08:56:09;3.50;66.90
5723;DHT22;2886;49.722;8.612;2023-02-28T08:58:35;3.80;63.00
5723;DHT22;2886;49.722;8.612;2023-02-28T09:01:14;3.80;63.50
5723;DHT22;2886;49.722;8.612;2023-02-28T09:03:41;3.70;63.10
5723;DHT22;2886;49.722;8.612;2023-02-28T09:06:08;3.50;63.80
5723;DHT22;2886;49.722;8.612;2023-02-28T09:08:34;3.20;65.10
5723;DHT22;2886;49.722;8.612;2023-02-28T09:11:00;3.60;64.20
5723;DHT22;2886;49.722;8.612;2023-02-28T09:13:27;3.70;63.80
5723;DHT22;2886;49.722;8.612;2023-02-28T09:15:54;3.90;63.40
5723;DHT22;2886;49.722;8.612;2023-02-28T09:18:20;4.10;61.80
5723;DHT22;2886;49.722;8.612;2023-02-28T09:20:46;3.90;61.40
5723;DHT22;2886;49.722;8.612;2023-02-28T09:23:12;3.90;62.30
5723;DHT22;2886;49.722;8.612;2023-02-28T09:25:45;4.10;62.00
5723;DHT22;2886;49.722;8.612;2023-02-28T09:28:11;4.00;61.70
5723;DHT22;2886;49.722;8.612;2023-02-28T09:30:37;4.10;61.20
5723;DHT22;2886;49.722;8.612;2023-02-28T09:33:03;4.00;62.40
5723;DHT22;2886;49.722;8.612;2023-02-28T09:35:29;4.30;60.30
5723;DHT22;2886;49.722;8.612;2023-02-28T09:37:56;4.30;58.70
5723;DHT22;2886;49.722;8.612;2023-02-28T09:40:24;4.50;58.70
5723;DHT22;2886;49.722;8.612;2023-02-28T09:42:52;4.60;56.00
5723;DHT22;2886;49.722;8.612;2023-02-28T09:45:41;4.50;56.10
5723;DHT22;2886;49.722;8.612;2023-02-28T09:48:16;4.80;55.20
5723;DHT22;2886;49.722;8.612;2023-02-28T09:50:49;4.30;53.70
5723;DHT22;2886;49.722;8.612;2023-02-28T09:53:26;4.60;54.30
5723;DHT22;2886;49.722;8.612;2023-02-28T09:56:04;4.70;53.00
5723;DHT22;2886;49.722;8.612;2023-02-28T09:58:46;4.30;53.10
5723;DHT22;2886;49.722;8.612;2023-02-28T10:01:24;4.40;52.40
5723;DHT22;2886;49.722;8.612;2023-02-28T10:03:57;4.80;52.20
5723;DHT22;2886;49.722;8.612;2023-02-28T10:06:29;5.00;50.80
5723;DHT22;2886;49.722;8.612;2023-02-28T10:09:04;5.30;50.60
5723;DHT22;2886;49.722;8.612;2023-02-28T10:11:33;5.60;50.40
5723;DHT22;2886;49.722;8.612;2023-02-28T10:17:10;5.80;48.00
5723;DHT22;2886;49.722;8.612;2023-02-28T10:22:35;5.40;48.60
5723;DHT22;2886;49.722;8.612;2023-02-28T10:25:22;5.20;48.70
5723;DHT22;2886;49.722;8.612;2023-02-28T10:27:49;5.10;49.20
5723;DHT22;2886;49.722;8.612;2023-02-28T10:30:15;4.90;49.20
5723;DHT22;2886;49.722;8.612;2023-02-28T10:32:47;5.00;49.30
5723;DHT22;2886;49.722;8.612;2023-02-28T10:35:18;5.10;49.50
5723;DHT22;2886;49.722;8.612;2023-02-28T10:37:47;5.00;48.90
5723;DHT22;2886;49.722;8.612;2023-02-28T10:43:27;4.80;48.70
5723;DHT22;2886;49.722;8.612;2023-02-28T10:48:47;5.00;47.60
5723;DHT22;2886;49.722;8.612;2023-02-28T10:51:18;4.80;48.80
5723;DHT22;2886;49.722;8.612;2023-02-28T10:53:52;5.00;49.10
5723;DHT22;2886;49.722;8.612;2023-02-28T10:56:22;5.40;47.60
5723;DHT22;2886;49.722;8.612;2023-02-28T11:01:37;5.50;47.00
5723;DHT22;2886;49.722;8.612;2023-02-28T11:04:17;5.50;47.20
5723;DHT22;2886;49.722;8.612;2023-02-28T11:06:44;5.50;47.90
5723;DHT22;2886;49.722;8.612;2023-02-28T11:09:21;5.30;48.10
5723;DHT22;2886;49.722;8.612;2023-02-28T11:11:48;5.70;48.20
5723;DHT22;2886;49.722;8.612;2023-02-28T11:14:47;5.80;47.00
5723;DHT22;2886;49.722;8.612;2023-02-28T11:17:25;5.80;46.70
5723;DHT22;2886;49.722;8.612;2023-02-28T11:20:06;5.40;47.60
5723;DHT22;2886;49.722;8.612;2023-02-28T11:22:39;5.60;47.70
5723;DHT22;2886;49.722;8.612;2023-02-28T11:25:30;5.40;48.20
5723;DHT22;2886;49.722;8.612;2023-02-28T11:27:58;5.20;48.20
5723;DHT22;2886;49.722;8.612;2023-02-28T11:30:29;5.40;48.20
5723;DHT22;2886;49.722;8.612;2023-02-28T11:32:56;5.20;47.80
5723;DHT22;2886;49.722;8.612;2023-02-28T11:35:33;5.00;48.40
5723;DHT22;2886;49.722;8.612;2023-02-28T11:38:00;4.70;49.30
5723;DHT22;2886;49.722;8.612;2023-02-28T11:40:50;4.60;49.50
5723;DHT22;2886;49.722;8.612;2023-02-28T11:43:38;4.50;50.40
5723;DHT22;2886;49.722;8.612;2023-02-28T11:48:59;4.90;49.40
5723;DHT22;2886;49.722;8.612;2023-02-28T11:51:34;4.80;50.10
5723;DHT22;2886;49.722;8.612;2023-02-28T11:56:46;4.90;50.00
5723;DHT22;2886;49.722;8.612;2023-02-28T11:59:46;5.00;49.50
5723;DHT22;2886;49.722;8.612;2023-02-28T12:02:28;5.20;49.80
5723;DHT22;2886;49.722;8.612;2023-02-28T12:05:28;5.30;49.00
5723;DHT22;2886;49.722;8.612;2023-02-28T12:11:10;5.20;49.10
5723;DHT22;2886;49.722;8.612;2023-02-28T12:22:28;5.10;49.70
5723;DHT22;2886;49.722;8.612;2023-02-28T12:25:21;5.20;49.70
5723;DHT22;2886;49.722;8.612;2023-02-28T12:27:49;5.30;49.10
5723;DHT22;2886;49.722;8.612;2023-02-28T12:32:48;5.10;50.00
5723;DHT22;2886;49.722;8.612;2023-02-28T12:35:19;5.20;50.10
5723;DHT22;2886;49.722;8.612;2023-02-28T12:38:02;5.30;50.00
5723;DHT22;2886;49.722;8.612;2023-02-28T12:43:19;5.30;49.50
5723;DHT22;2886;49.722;8.612;2023-02-28T12:45:57;5.20;50.00
5723;DHT22;2886;49.722;8.612;2023-02-28T12:48:42;5.10;50.00
5723;DHT22;2886;49.722;8.612;2023-02-28T12:51:09;5.10;50.10
5723;DHT22;2886;49.722;8.612;2023-02-28T12:59:21;5.30;49.80
5723;DHT22;2886;49.722;8.612;2023-02-28T13:04:45;5.00;49.50
5723;DHT22;2886;49.722;8.612;2023-02-28T13:09:38;5.00;49.90
5723;DHT22;2886;49.722;8.612;2023-02-28T13:12:15;5.10;49.70
5723;DHT22;2886;49.722;8.612;2023-02-28T13:14:43;5.00;49.50
5723;DHT22;2886;49.722;8.612;2023-02-28T13:19:37;5.00;49.80
5723;DHT22;2886;49.722;8.612;2023-02-28T13:22:04;5.00;49.20
5723;DHT22;2886;49.722;8.612;2023-02-28T13:24:43;5.00;49.70
5723;DHT22;2886;49.722;8.612;2023-02-28T13:29:40;5.00;49.30
5723;DHT22;2886;49.722;8.612;2023-02-28T13:34:37;5.00;49.90
5723;DHT22;2886;49.722;8.612;2023-02-28T13:42:36;5.20;49.80
5723;DHT22;2886;49.722;8.612;2023-02-28T13:47:45;5.30;50.10
5723;DHT22;2886;49.722;8.612;2023-02-28T13:58:56;5.30;49.00
5723;DHT22;2886;49.722;8.612;2023-02-28T14:06:52;5.10;50.20
5723;DHT22;2886;49.722;8.612;2023-02-28T14:09:25;5.30;49.20
5723;DHT22;2886;49.722;8.612;2023-02-28T14:11:52;5.40;48.70
5723;DHT22;2886;49.722;8.612;2023-02-28T14:17:15;5.30;49.20
5723;DHT22;2886;49.722;8.612;2023-02-28T14:19:44;5.40;49.30
5723;DHT22;2886;49.722;8.612;2023-02-28T14:25:23;5.60;49.00
5723;DHT22;2886;49.722;8.612;2023-02-28T14:30:59;5.40;48.80
5723;DHT22;2886;49.722;8.612;2023-02-28T14:36:03;5.40;49.10
5723;DHT22;2886;49.722;8.612;2023-02-28T14:38:33;5.40;49.10
5723;DHT22;2886;49.722;8.612;2023-02-28T14:41:04;5.40;49.70
5723;DHT22;2886;49.722;8.612;2023-02-28T14:43:31;5.50;49.60
5723;DHT22;2886;49.722;8.612;2023-02-28T14:46:00;5.50;48.90
5723;DHT22;2886;49.722;8.612;2023-02-28T14:48:26;5.50;49.40
5723;DHT22;2886;49.722;8.612;2023-02-28T14:50:57;5.50;49.50
5723;DHT22;2886;49.722;8.612;2023-02-28T14:53:27;5.50;49.60
5723;DHT22;2886;49.722;8.612;2023-02-28T14:55:53;5.50;49.00
5723;DHT22;2886;49.722;8.612;2023-02-28T14:58:28;5.40;48.40
5723;DHT22;2886;49.722;8.612;2023-02-28T15:00:57;5.40;48.60
5723;DHT22;2886;49.722;8.612;2023-02-28T15:03:43;5.40;48.80
5723;DHT22;2886;49.722;8.612;2023-02-28T15:06:15;5.40;49.20
5723;DHT22;2886;49.722;8.612;2023-02-28T15:08:44;5.40;49.40
5723;DHT22;2886;49.722;8.612;2023-02-28T15:11:16;5.40;48.60
5723;DHT22;2886;49.722;8.612;2023-02-28T15:13:48;5.30;48.60
5723;DHT22;2886;49.722;8.612;2023-02-28T15:16:21;5.40;48.80
5723;DHT22;2886;49.722;8.612;2023-02-28T15:18:54;5.40;48.70
5723;DHT22;2886;49.722;8.612;2023-02-28T15:21:35;5.50;48.90
5723;DHT22;2886;49.722;8.612;2023-02-28T15:24:10;5.40;48.50
5723;DHT22;2886;49.722;8.612;2023-02-28T15:26:46;5.40;48.70
5723;DHT22;2886;49.722;8.612;2023-02-28T15:29:17;5.40;48.60
5723;DHT22;2886;49.722;8.612;2023-02-28T15:31:49;5.40;49.00
5723;DHT22;2886;49.722;8.612;2023-02-28T15:34:40;5.40;50.00
5723;DHT22;2886;49.722;8.612;2023-02-28T15:37:45;5.50;49.30
5723;DHT22;2886;49.722;8.612;2023-02-28T15:40:25;5.60;48.30
5723;DHT22;2886;49.722;8.612;2023-02-28T15:43:03;5.50;48.50
5723;DHT22;2886;49.722;8.612;2023-02-28T15:45:44;5.50;48.20
5723;DHT22;2886;49.722;8.612;2023-02-28T15:48:18;5.50;48.50
5723;DHT22;2886;49.722;8.612;2023-02-28T15:50:44;5.50;48.40
5723;DHT22;2886;49.722;8.612;2023-02-28T15:53:19;5.60;48.10
5723;DHT22;2886;49.722;8.612;2023-02-28T15:55:55;5.60;48.10
5723;DHT22;2886;49.722;8.612;2023-02-28T15:58:24;5.70;48.10
5723;DHT22;2886;49.722;8.612;2023-02-28T16:03:53;5.70;48.10
5723;DHT22;2886;49.722;8.612;2023-02-28T16:08:49;5.90;48.00
5723;DHT22;2886;49.722;8.612;2023-02-28T16:11:17;5.80;47.80
5723;DHT22;2886;49.722;8.612;2023-02-28T16:13:42;5.80;47.80
5723;DHT22;2886;49.722;8.612;2023-02-28T16:16:08;5.90;47.60
5723;DHT22;2886;49.722;8.612;2023-02-28T16:18:39;5.80;47.90
5723;DHT22;2886;49.722;8.612;2023-02-28T16:21:05;5.70;47.70
5723;DHT22;2886;49.722;8.612;2023-02-28T16:23:31;5.70;48.20
5723;DHT22;2886;49.722;8.612;2023-02-28T16:25:56;5.70;48.50
5723;DHT22;2886;49.722;8.612;2023-02-28T16:28:31;5.60;48.20
5723;DHT22;2886;49.722;8.612;2023-02-28T16:31:03;5.60;48.60
5723;DHT22;2886;49.722;8.612;2023-02-28T16:33:33;5.60;48.90
5723;DHT22;2886;49.722;8.612;2023-02-28T16:35:59;5.60;48.80
5723;DHT22;2886;49.722;8.612;2023-02-28T16:38:26;5.50;48.70
5723;DHT22;2886;49.722;8.612;2023-02-28T16:40:54;5.50;48.90
5723;DHT22;2886;49.722;8.612;2023-02-28T16:43:23;5.50;48.80
5723;DHT22;2886;49.722;8.612;2023-02-28T16:45:57;5.40;49.20
5723;DHT22;2886;49.722;8.612;2023-02-28T16:48:24;5.40;49.50
5723;DHT22;2886;49.722;8.612;2023-02-28T16:50:51;5.40;49.30
5723;DHT22;2886;49.722;8.612;2023-02-28T16:53:16;5.30;49.20
5723;DHT22;2886;49.722;8.612;2023-02-28T16:55:42;5.20;49.50
5723;DHT22;2886;49.722;8.612;2023-02-28T16:58:17;5.10;50.10
5723;DHT22;2886;49.722;8.612;2023-02-28T17:00:44;5.10;50.00
5723;DHT22;2886;49.722;8.612;2023-02-28T17:03:22;5.10;50.30
5723;DHT22;2886;49.722;8.612;2023-02-28T17:05:48;5.00;50.40
5723;DHT22;2886;49.722;8.612;2023-02-28T17:08:14;4.90;51.00
5723;DHT22;2886;49.722;8.612;2023-02-28T17:10:39;4.80;50.90
5723;DHT22;2886;49.722;8.612;2023-02-28T17:13:05;4.80;51.30
5723;DHT22;2886;49.722;8.612;2023-02-28T17:15:33;4.80;51.50
5723;DHT22;2886;49.722;8.612;2023-02-28T17:18:00;4.80;51.20
5723;DHT22;2886;49.722;8.612;2023-02-28T17:20:26;4.70;51.30
5723;DHT22;2886;49.722;8.612;2023-02-28T17:22:58;4.70;51.40
5723;DHT22;2886;49.722;8.612;2023-02-28T17:25:24;4.60;51.70
5723;DHT22;2886;49.722;8.612;2023-02-28T17:27:50;4.50;52.20
5723;DHT22;2886;49.722;8.612;2023-02-28T17:30:22;4.40;53.10
5723;DHT22;2886;49.722;8.612;2023-02-28T17:32:48;4.30;54.00
5723;DHT22;2886;49.722;8.612;2023-02-28T17:35:14;4.10;55.30
5723;DHT22;2886;49.722;8.612;2023-02-28T17:37:41;4.00;55.60
5723;DHT22;2886;49.722;8.612;2023-02-28T17:40:15;3.90;56.90
5723;DHT22;2886;49.722;8.612;2023-02-28T17:42:41;3.80;58.20
5723;DHT22;2886;49.722;8.612;2023-02-28T17:45:07;3.70;58.60
5723;DHT22;2886;49.722;8.612;2023-02-28T17:47:33;3.60;59.00
5723;DHT22;2886;49.722;8.612;2023-02-28T17:49:59;3.50;59.40
5723;DHT22;2886;49.722;8.612;2023-02-28T17:52:25;3.40;59.80
5723;DHT22;2886;49.722;8.612;2023-02-28T17:54:50;3.30;60.00
5723;DHT22;2886;49.722;8.612;2023-02-28T17:57:16;3.20;60.50
5723;DHT22;2886;49.722;8.612;2023-02-28T17:59:42;3.10;61.40
5723;DHT22;2886;49.722;8.612;2023-02-28T18:02:11;3.10;61.90
5723;DHT22;2886;49.722;8.612;2023-02-28T18:04:37;3.00;61.80
5723;DHT22;2886;49.722;8.612;2023-02-28T18:07:03;2.90;62.70
5723;DHT22;2886;49.722;8.612;2023-02-28T18:09:28;2.80;63.80
5723;DHT22;2886;49.722;8.612;2023-02-28T18:11:55;2.80;63.80
5723;DHT22;2886;49.722;8.612;2023-02-28T18:14:24;2.80;65.10
5723;DHT22;2886;49.722;8.612;2023-02-28T18:16:51;2.70;65.10
5723;DHT22;2886;49.722;8.612;2023-02-28T18:19:18;2.70;65.60
5723;DHT22;2886;49.722;8.612;2023-02-28T18:21:45;2.70;65.50
5723;DHT22;2886;49.722;8.612;2023-02-28T18:24:11;2.70;66.40
5723;DHT22;2886;49.722;8.612;2023-02-28T18:26:38;2.60;66.10
5723;DHT22;2886;49.722;8.612;2023-02-28T18:29:05;2.60;67.00
5723;DHT22;2886;49.722;8.612;2023-02-28T18:31:31;2.50;67.10
5723;DHT22;2886;49.722;8.612;2023-02-28T18:33:57;2.60;67.40
5723;DHT22;2886;49.722;8.612;2023-02-28T18:36:24;2.50;67.10
5723;DHT22;2886;49.722;8.612;2023-02-28T18:38:50;2.40;67.30
5723;DHT22;2886;49.722;8.612;2023-02-28T18:41:17;2.40;68.60